Time;durP1;ratioP1;P1;durP2;ratioP2;P2;SDS_P1;SDS_P2;PMS_P1;PMS_P2;Temp;Humidity;BMP_temperature;BMP_pressure;BME280_temperature;BME280_humidity;BME280_pressure;Samples;Min_cycle;Max_cycle;Signal;HPM_P1;HPM_P2
2022/06/05 00:01:29;;;;;;;12.37;5.10;;;18.50;99.90;;;;;;5056178;28;20198;-72
2022/06/05 00:04:21;;;;;;;12.60;4.83;;;18.50;99.90;;;;;;5071183;28;20214;-73
2022/06/05 00:06:55;;;;;;;9.43;5.00;;;18.50;99.90;;;;;;5088990;28;20725;-73
2022/06/05 00:09:54;;;;;;;17.47;5.20;;;18.50;99.90;;;;;;5088602;28;20178;-72
2022/06/05 00:12:33;;;;;;;11.93;5.40;;;18.50;99.90;;;;;;5089140;28;20402;-73
2022/06/05 00:15:00;;;;;;;12.80;5.47;;;18.40;99.90;;;;;;5044613;28;20635;-73
2022/06/05 00:17:26;;;;;;;11.07;5.37;;;18.40;99.90;;;;;;5061363;28;20193;-73
2022/06/05 00:19:53;;;;;;;13.67;5.33;;;18.40;99.90;;;;;;5055096;28;20272;-73
2022/06/05 00:22:20;;;;;;;10.37;5.43;;;18.40;99.90;;;;;;5067586;28;20241;-73
2022/06/05 00:24:47;;;;;;;12.20;5.63;;;18.40;99.90;;;;;;5067018;28;20220;-72
2022/06/05 00:27:23;;;;;;;20.13;5.57;;;18.40;99.90;;;;;;5090066;28;20186;-73
2022/06/05 00:30:09;;;;;;;11.17;5.90;;;18.40;99.90;;;;;;5063275;28;20201;-73
2022/06/05 00:32:41;;;;;;;11.33;5.27;;;18.40;99.90;;;;;;5069830;28;20277;-73
2022/06/05 00:35:15;;;;;;;10.23;5.30;;;18.30;99.90;;;;;;5071558;28;20218;-72
2022/06/05 00:38:09;;;;;;;11.30;5.93;;;18.30;99.90;;;;;;5069951;28;20179;-73
2022/06/05 00:41:06;;;;;;;10.70;5.20;;;18.30;99.90;;;;;;5054740;28;20570;-73
2022/06/05 00:43:32;;;;;;;11.57;5.03;;;18.40;99.90;;;;;;5069904;28;20270;-73
2022/06/05 00:45:58;;;;;;;11.57;4.53;;;18.40;99.90;;;;;;5052367;28;20670;-73
2022/06/05 00:48:26;;;;;;;10.93;5.30;;;18.40;99.90;;;;;;5084504;28;20194;-73
2022/06/05 00:50:53;;;;;;;14.20;5.73;;;18.40;99.90;;;;;;5070343;28;20198;-73
2022/06/05 00:53:20;;;;;;;12.27;5.77;;;18.40;99.90;;;;;;5070614;28;20217;-73
2022/06/05 00:55:52;;;;;;;13.70;5.37;;;18.40;99.90;;;;;;5076795;28;20276;-73
2022/06/05 00:58:20;;;;;;;13.03;5.53;;;18.30;99.90;;;;;;5080930;28;20189;-73
2022/06/05 01:00:54;;;;;;;12.10;5.30;;;18.40;99.90;;;;;;5087178;28;20226;-73
2022/06/05 01:03:22;;;;;;;13.67;5.40;;;18.30;99.90;;;;;;5070279;28;20226;-73
2022/06/05 01:05:49;;;;;;;12.23;5.00;;;18.20;99.90;;;;;;5089048;28;20221;-73
2022/06/05 01:08:17;;;;;;;11.03;5.10;;;18.20;99.90;;;;;;5104438;28;20178;-73
2022/06/05 01:11:03;;;;;;;14.80;5.10;;;18.20;99.90;;;;;;5053744;28;20216;-73
2022/06/05 01:13:39;;;;;;;8.60;5.20;;;18.20;99.90;;;;;;5080198;28;20218;-72
2022/06/05 01:16:18;;;;;;;11.70;4.87;;;18.30;99.90;;;;;;5073017;28;20227;-73
2022/06/05 01:19:02;;;;;;;9.27;4.70;;;18.30;99.90;;;;;;5104364;28;20182;-73
2022/06/05 01:21:53;;;;;;;11.07;4.90;;;18.30;99.90;;;;;;5087292;28;20217;-74
2022/06/05 01:24:49;;;;;;;9.60;5.47;;;18.20;99.90;;;;;;5052353;28;20186;-72
2022/06/05 01:27:25;;;;;;;9.20;5.03;;;18.20;99.90;;;;;;5054073;28;20273;-73
2022/06/05 01:30:08;;;;;;;10.57;5.30;;;18.10;99.90;;;;;;5050608;28;20661;-73
2022/06/05 01:32:52;;;;;;;13.67;5.67;;;18.10;99.90;;;;;;5085245;28;20193;-72
2022/06/05 01:35:48;;;;;;;14.33;4.97;;;18.00;99.90;;;;;;5054163;28;20186;-73
2022/06/05 01:38:54;;;;;;;8.87;4.90;;;18.00;99.90;;;;;;5067715;28;20278;-73
2022/06/05 01:41:32;;;;;;;13.47;5.07;;;17.90;99.90;;;;;;5059902;28;20214;-73
2022/06/05 01:44:05;;;;;;;10.63;4.47;;;17.90;99.90;;;;;;5085357;28;20654;-73
2022/06/05 01:46:36;;;;;;;11.13;4.43;;;17.90;99.90;;;;;;5068842;28;20268;-72
2022/06/05 01:49:33;;;;;;;8.83;5.40;;;17.90;99.90;;;;;;5080362;28;20193;-72
2022/06/05 01:52:26;;;;;;;11.00;4.97;;;17.80;99.90;;;;;;5084938;28;20261;-72
2022/06/05 01:55:18;;;;;;;13.93;5.00;;;17.80;99.90;;;;;;5070535;28;20658;-72
2022/06/05 01:57:46;;;;;;;11.17;4.90;;;17.80;99.90;;;;;;5056820;28;20251;-72
2022/06/05 02:00:19;;;;;;;12.37;5.50;;;17.80;99.90;;;;;;5049198;28;20234;-72
2022/06/05 02:03:30;;;;;;;14.73;4.73;;;17.80;99.90;;;;;;5068187;28;20193;-72
2022/06/05 02:06:07;;;;;;;12.13;4.40;;;17.80;99.90;;;;;;5046146;28;20201;-72
2022/06/05 02:08:59;;;;;;;10.87;4.23;;;17.90;99.90;;;;;;5098249;28;20197;-72
2022/06/05 02:11:30;;;;;;;9.57;4.13;;;18.00;99.90;;;;;;5051078;28;20225;-73
2022/06/05 02:14:05;;;;;;;11.33;4.63;;;18.00;99.90;;;;;;5069588;28;20547;-73
2022/06/05 02:16:35;;;;;;;11.67;4.70;;;18.10;99.90;;;;;;5069455;28;20209;-73
2022/06/05 02:19:12;;;;;;;10.00;4.63;;;18.10;99.90;;;;;;5085057;28;20189;-73
2022/06/05 02:21:40;;;;;;;11.73;4.83;;;18.10;99.90;;;;;;5085786;28;20293;-73
2022/06/05 02:24:10;;;;;;;10.77;4.53;;;18.10;99.90;;;;;;5053110;28;20251;-72
2022/06/05 02:26:38;;;;;;;10.83;4.40;;;18.20;99.90;;;;;;5054123;28;20729;-72
2022/06/05 02:29:32;;;;;;;9.40;4.17;;;18.20;99.90;;;;;;5069725;28;20201;-73
2022/06/05 02:32:20;;;;;;;8.10;4.17;;;18.20;99.90;;;;;;5064481;28;20198;-72
2022/06/05 02:35:03;;;;;;;7.87;3.67;;;18.30;99.90;;;;;;5075106;28;20266;-73
2022/06/05 02:38:15;;;;;;;10.10;3.97;;;18.40;99.90;;;;;;5089084;28;20202;-73
2022/06/05 02:41:10;;;;;;;6.73;3.83;;;18.50;99.90;;;;;;5073874;28;20214;-72
2022/06/05 02:44:28;;;;;;;9.70;4.13;;;18.50;99.90;;;;;;5070045;28;20823;-72
2022/06/05 02:46:52;;;;;;;8.07;4.10;;;18.50;99.90;;;;;;5055904;28;20532;-72
2022/06/05 02:49:31;;;;;;;11.63;4.30;;;18.60;99.90;;;;;;5086631;28;20189;-73
2022/06/05 02:52:05;;;;;;;11.40;4.40;;;18.60;99.90;;;;;;5068012;28;20276;-73
2022/06/05 02:54:42;;;;;;;9.13;4.27;;;18.60;99.90;;;;;;5064024;28;20193;-73
2022/06/05 02:57:09;;;;;;;10.67;4.90;;;18.60;99.90;;;;;;5066534;28;20580;-73
2022/06/05 02:59:36;;;;;;;10.90;4.60;;;18.70;99.90;;;;;;5080347;28;20193;-72
2022/06/05 03:04:48;;;;;;;6.50;3.83;;;18.70;99.90;;;;;;5073252;28;20175;-73
2022/06/05 03:07:15;;;;;;;7.53;3.90;;;18.70;99.90;;;;;;5083368;28;20240;-72
2022/06/05 03:09:42;;;;;;;12.93;4.20;;;18.70;99.90;;;;;;5088016;28;20178;-72
2022/06/05 03:12:10;;;;;;;13.83;4.60;;;18.70;99.90;;;;;;5064265;28;20186;-72
2022/06/05 03:14:36;;;;;;;9.13;4.50;;;18.70;99.90;;;;;;5072979;28;20200;-73
2022/06/05 03:17:03;;;;;;;9.73;4.40;;;18.70;99.90;;;;;;5086532;28;20205;-73
2022/06/05 03:19:30;;;;;;;9.53;4.27;;;18.70;99.90;;;;;;5094864;28;20228;-73
2022/06/05 03:21:56;;;;;;;14.20;4.53;;;18.70;99.90;;;;;;5090229;28;20237;-73
2022/06/05 03:24:23;;;;;;;10.03;4.33;;;18.80;99.90;;;;;;5081229;28;20216;-72
2022/06/05 03:26:51;;;;;;;12.00;4.70;;;18.80;99.90;;;;;;5100623;28;20368;-73
2022/06/05 03:29:18;;;;;;;9.70;4.07;;;18.80;99.90;;;;;;5083077;28;20254;-73
2022/06/05 03:31:45;;;;;;;12.20;4.57;;;18.80;99.90;;;;;;5068931;28;20253;-73
2022/06/05 03:34:11;;;;;;;8.20;4.23;;;18.90;99.90;;;;;;5056932;28;20196;-73
2022/06/05 03:36:37;;;;;;;10.43;4.43;;;18.90;99.90;;;;;;5086077;28;20191;-73
2022/06/05 03:39:04;;;;;;;9.33;4.40;;;18.90;99.90;;;;;;5057662;28;20183;-73
2022/06/05 03:41:31;;;;;;;9.33;4.30;;;18.90;99.90;;;;;;5065724;28;20304;-73
2022/06/05 03:43:58;;;;;;;8.00;4.53;;;18.90;99.90;;;;;;5065952;28;20179;-73
2022/06/05 03:46:24;;;;;;;11.77;4.50;;;18.90;99.90;;;;;;5090757;28;20170;-72
2022/06/05 03:48:50;;;;;;;8.20;4.57;;;18.90;99.90;;;;;;5066547;28;20263;-72
2022/06/05 03:51:21;;;;;;;8.43;4.10;;;18.90;99.90;;;;;;5087616;28;20203;-73
2022/06/05 03:53:48;;;;;;;12.77;4.67;;;18.90;99.90;;;;;;5069275;28;20197;-73
2022/06/05 03:56:22;;;;;;;7.50;4.20;;;18.90;99.90;;;;;;5055292;28;20174;-73
2022/06/05 03:58:51;;;;;;;10.23;5.13;;;19.00;99.90;;;;;;5084534;28;20190;-72
2022/06/05 04:01:20;;;;;;;8.27;4.57;;;19.00;99.90;;;;;;5071029;28;20222;-73
2022/06/05 04:03:47;;;;;;;9.93;4.47;;;19.00;99.90;;;;;;5072329;28;20436;-73
2022/06/05 04:06:18;;;;;;;10.63;5.07;;;18.90;99.90;;;;;;5054626;28;20186;-73
2022/06/05 04:08:45;;;;;;;13.93;5.33;;;18.90;99.90;;;;;;5062426;28;20243;-73
2022/06/05 04:11:16;;;;;;;11.20;4.37;;;19.00;99.90;;;;;;5068756;28;20191;-73
2022/06/05 04:13:46;;;;;;;7.83;4.80;;;19.00;99.90;;;;;;5087386;28;20213;-72
2022/06/05 04:16:18;;;;;;;10.80;4.63;;;19.00;99.90;;;;;;5054973;28;20268;-72
2022/06/05 04:18:45;;;;;;;8.57;4.70;;;19.00;99.90;;;;;;5051292;28;20622;-73
2022/06/05 04:21:19;;;;;;;10.80;4.20;;;19.00;99.90;;;;;;5067306;28;20210;-73
2022/06/05 04:23:46;;;;;;;13.80;5.10;;;19.00;99.90;;;;;;5093290;28;20289;-72
2022/06/05 04:26:16;;;;;;;9.77;4.17;;;19.10;99.90;;;;;;5061665;28;20971;-73
2022/06/05 04:28:43;;;;;;;7.93;4.00;;;19.10;99.90;;;;;;5064427;28;20882;-73
2022/06/05 04:31:26;;;;;;;9.60;3.87;;;19.20;99.90;;;;;;5070115;28;20195;-72
2022/06/05 04:33:58;;;;;;;7.90;4.27;;;19.20;99.90;;;;;;5068930;28;20182;-72
2022/06/05 04:36:25;;;;;;;11.17;4.50;;;19.30;99.90;;;;;;5050685;28;20405;-73
2022/06/05 04:38:53;;;;;;;9.73;4.63;;;19.30;99.90;;;;;;5051715;28;20717;-72
2022/06/05 04:41:20;;;;;;;6.87;4.40;;;19.40;99.90;;;;;;5053573;28;20221;-72
2022/06/05 04:43:49;;;;;;;8.17;4.63;;;19.40;99.90;;;;;;5089473;28;20186;-73
2022/06/05 04:46:29;;;;;;;7.30;4.60;;;19.50;99.90;;;;;;5053508;28;20193;-73
2022/06/05 04:48:56;;;;;;;9.27;4.67;;;19.60;99.90;;;;;;5082395;28;20698;-73
2022/06/05 04:51:23;;;;;;;8.50;4.50;;;19.60;99.90;;;;;;5072901;28;20924;-73
2022/06/05 04:53:52;;;;;;;8.57;5.20;;;19.60;99.90;;;;;;5067518;28;20309;-73
2022/06/05 04:56:22;;;;;;;9.50;5.03;;;19.70;99.90;;;;;;5069644;28;20179;-73
2022/06/05 04:58:55;;;;;;;8.73;5.43;;;19.80;99.90;;;;;;5040701;28;20191;-72
2022/06/05 05:01:27;;;;;;;7.97;5.20;;;19.90;99.90;;;;;;5067278;28;20213;-73
2022/06/05 05:04:02;;;;;;;8.67;5.23;;;19.90;99.90;;;;;;5087259;28;20178;-72
2022/06/05 05:06:31;;;;;;;11.87;5.30;;;20.00;99.90;;;;;;5054486;28;20185;-73
2022/06/05 05:08:58;;;;;;;13.83;6.10;;;20.00;99.90;;;;;;5070636;28;20190;-73
2022/06/05 05:11:26;;;;;;;12.63;6.27;;;20.10;99.90;;;;;;5069800;28;20307;-73
2022/06/05 05:13:55;;;;;;;11.03;5.50;;;20.10;99.90;;;;;;5069082;28;20297;-73
2022/06/05 05:16:22;;;;;;;11.40;6.23;;;20.20;99.90;;;;;;5069286;28;20194;-73
2022/06/05 05:18:49;;;;;;;9.90;6.00;;;20.20;99.90;;;;;;5064476;28;20282;-72
2022/06/05 05:21:18;;;;;;;11.47;5.97;;;20.30;99.90;;;;;;5076911;28;20477;-73
2022/06/05 05:23:47;;;;;;;13.40;6.20;;;20.40;99.90;;;;;;5050126;28;20698;-73
2022/06/05 05:26:27;;;;;;;12.50;6.40;;;20.50;99.90;;;;;;5069441;28;20654;-72
2022/06/05 05:28:58;;;;;;;14.20;6.37;;;20.60;99.90;;;;;;5044402;28;20197;-72
2022/06/05 05:31:30;;;;;;;13.40;5.97;;;20.90;99.90;;;;;;5081750;28;20186;-73
2022/06/05 05:33:57;;;;;;;9.77;5.93;;;21.00;99.90;;;;;;5047515;28;20277;-73
2022/06/05 05:36:26;;;;;;;14.80;6.23;;;21.10;99.90;;;;;;5090826;28;20198;-73
2022/06/05 05:44:31;;;;;;;14.03;6.67;;;21.50;99.90;;;;;;5085865;28;20186;-74
2022/06/05 05:46:57;;;;;;;17.97;6.83;;;21.50;99.90;;;;;;5045361;28;20269;-74
2022/06/05 05:49:25;;;;;;;13.13;6.67;;;21.50;99.90;;;;;;5081390;28;20566;-74
2022/06/05 05:51:51;;;;;;;12.73;6.30;;;21.60;99.90;;;;;;5078996;28;20194;-73
2022/06/05 05:54:18;;;;;;;14.33;6.60;;;21.80;99.90;;;;;;5078416;28;20178;-74
2022/06/05 05:56:46;;;;;;;13.63;6.85;;;21.70;99.90;;;;;;5048982;28;20182;-74
2022/06/05 05:59:13;;;;;;;12.27;6.45;;;21.80;99.90;;;;;;5067733;28;20586;-74
2022/06/05 06:01:39;;;;;;;12.73;6.30;;;21.90;99.90;;;;;;5063946;28;20750;-74
2022/06/05 06:04:06;;;;;;;16.27;6.50;;;22.00;99.90;;;;;;5084306;28;20840;-73
2022/06/05 06:06:36;;;;;;;12.45;6.25;;;22.20;99.90;;;;;;5084047;28;20195;-73
2022/06/05 06:09:04;;;;;;;11.52;6.32;;;22.30;99.90;;;;;;5052432;28;20181;-73
2022/06/05 06:11:31;;;;;;;8.95;5.70;;;22.60;99.90;;;;;;5070520;28;20202;-73
2022/06/05 06:13:58;;;;;;;12.80;5.22;;;22.70;99.90;;;;;;5071956;28;20347;-74
2022/06/05 06:16:26;;;;;;;14.02;5.40;;;22.70;99.90;;;;;;5070129;28;20189;-73
2022/06/05 06:18:54;;;;;;;11.80;5.28;;;22.70;99.90;;;;;;5072145;28;20197;-74
2022/06/05 06:21:21;;;;;;;11.90;5.45;;;22.80;99.90;;;;;;5055657;28;20672;-74
2022/06/05 06:23:49;;;;;;;8.32;4.88;;;22.80;99.90;;;;;;5089683;28;20194;-74
2022/06/05 06:26:16;;;;;;;10.00;5.47;;;23.00;99.90;;;;;;5055752;28;20250;-74
2022/06/05 06:28:42;;;;;;;12.52;4.88;;;23.10;99.90;;;;;;5054101;28;20277;-74
2022/06/05 06:31:14;;;;;;;13.27;5.03;;;22.90;99.90;;;;;;5087265;28;20225;-74
2022/06/05 06:33:41;;;;;;;11.70;5.13;;;22.90;99.90;;;;;;5089839;28;20185;-73
2022/06/05 06:36:16;;;;;;;18.92;5.07;;;22.90;99.90;;;;;;5047808;28;20182;-74
2022/06/05 06:38:45;;;;;;;12.88;4.68;;;23.00;99.90;;;;;;5085612;28;20277;-73
2022/06/05 06:41:21;;;;;;;7.97;4.25;;;23.20;99.90;;;;;;5088653;28;20276;-74
2022/06/05 06:43:50;;;;;;;10.70;4.35;;;23.30;99.90;;;;;;5093836;28;20182;-73
2022/06/05 06:46:19;;;;;;;11.68;4.15;;;23.40;99.90;;;;;;5071571;28;20597;-73
2022/06/05 06:48:47;;;;;;;13.95;4.43;;;23.40;99.90;;;;;;5075317;28;20248;-73
2022/06/05 06:51:16;;;;;;;15.30;5.95;;;23.60;99.90;;;;;;5060106;28;20618;-73
2022/06/05 06:53:45;;;;;;;13.57;5.30;;;23.70;99.90;;;;;;5066377;28;20189;-73
2022/06/05 06:56:21;;;;;;;11.98;5.25;;;23.70;99.90;;;;;;5094113;28;20198;-72
2022/06/05 06:58:47;;;;;;;15.82;5.88;;;23.70;99.90;;;;;;5087578;28;20527;-72
2022/06/05 07:01:14;;;;;;;11.82;5.18;;;23.80;99.90;;;;;;5083473;28;20214;-74
2022/06/05 07:03:41;;;;;;;13.20;5.75;;;23.80;99.90;;;;;;5081872;28;20217;-72
2022/06/05 07:06:12;;;;;;;12.00;6.00;;;23.90;99.90;;;;;;5083868;28;20535;-72
2022/06/05 07:08:40;;;;;;;12.45;5.85;;;24.00;99.90;;;;;;5069027;28;20200;-73
2022/06/05 07:11:08;;;;;;;16.40;6.38;;;24.00;99.90;;;;;;5050371;28;20191;-73
2022/06/05 07:13:38;;;;;;;16.75;6.07;;;24.00;99.90;;;;;;5072114;28;20697;-72
2022/06/05 07:16:11;;;;;;;17.35;6.32;;;24.00;99.90;;;;;;5068379;28;20203;-72
2022/06/05 07:18:39;;;;;;;18.45;6.55;;;24.00;99.90;;;;;;5103132;28;20182;-72
2022/06/05 07:21:15;;;;;;;12.00;5.55;;;24.00;99.90;;;;;;5051257;28;20210;-73
2022/06/05 07:23:41;;;;;;;14.02;6.20;;;24.10;99.90;;;;;;5103532;28;20189;-72
2022/06/05 07:26:11;;;;;;;12.88;5.60;;;24.10;99.90;;;;;;5090319;28;20200;-72
2022/06/05 07:28:38;;;;;;;14.02;5.60;;;24.10;99.90;;;;;;5089125;28;20182;-72
2022/06/05 07:31:07;;;;;;;19.08;5.97;;;24.20;99.90;;;;;;5071561;28;20189;-72
2022/06/05 07:33:35;;;;;;;15.85;5.50;;;24.30;99.90;;;;;;5088608;28;20194;-72
2022/06/05 07:36:08;;;;;;;13.60;5.50;;;24.40;99.90;;;;;;5090620;28;20194;-72
2022/06/05 07:38:37;;;;;;;16.85;5.70;;;24.50;99.90;;;;;;5078896;28;20219;-72
2022/06/05 07:41:06;;;;;;;16.40;6.38;;;24.50;99.90;;;;;;5053617;28;21940;-72
2022/06/05 07:43:33;;;;;;;15.60;6.43;;;24.60;99.90;;;;;;5054871;28;20612;-73
2022/06/05 07:46:05;;;;;;;15.32;6.40;;;24.60;99.90;;;;;;5089732;28;20178;-72
2022/06/05 07:48:35;;;;;;;20.08;6.50;;;24.70;99.90;;;;;;5084252;28;20179;-71
2022/06/05 07:56:46;;;;;;;12.30;5.70;;;24.80;99.90;;;;;;5103256;28;20207;-73
2022/06/05 07:59:13;;;;;;;10.05;5.20;;;24.90;99.90;;;;;;5109267;28;20642;-72
2022/06/05 08:01:39;;;;;;;17.88;6.30;;;25.00;99.90;;;;;;5076354;28;20236;-73
2022/06/05 08:04:06;;;;;;;18.50;6.57;;;25.10;99.90;;;;;;5086888;28;20178;-72
2022/06/05 08:06:35;;;;;;;11.60;6.25;;;25.10;99.90;;;;;;5071203;28;20631;-72
2022/06/05 08:09:05;;;;;;;16.38;6.07;;;25.10;99.90;;;;;;5084123;28;20217;-72
2022/06/05 08:11:32;;;;;;;12.25;5.85;;;25.20;99.90;;;;;;5100881;28;20197;-73
2022/06/05 08:14:00;;;;;;;18.65;6.68;;;25.30;99.90;;;;;;5071467;28;20220;-74
2022/06/05 08:16:28;;;;;;;12.25;5.95;;;25.40;99.90;;;;;;5086614;28;20186;-74
2022/06/05 08:18:55;;;;;;;15.75;5.65;;;25.50;99.90;;;;;;5064620;28;20643;-73
2022/06/05 08:21:26;;;;;;;14.73;5.85;;;25.60;99.90;;;;;;5053247;28;20216;-73
2022/06/05 08:23:55;;;;;;;16.48;6.25;;;25.60;99.90;;;;;;5080961;28;20190;-72
2022/06/05 08:26:25;;;;;;;16.27;5.90;;;25.70;99.90;;;;;;5069311;28;20757;-71
2022/06/05 08:28:51;;;;;;;14.60;6.38;;;25.80;99.90;;;;;;5087639;28;20178;-72
2022/06/05 08:31:18;;;;;;;13.68;6.38;;;26.00;99.90;;;;;;5051792;28;20187;-72
2022/06/05 08:33:44;;;;;;;13.05;5.90;;;26.00;99.90;;;;;;5067672;28;20190;-72
2022/06/05 08:36:11;;;;;;;11.75;6.07;;;26.00;99.90;;;;;;5047719;28;20280;-72
2022/06/05 08:41:43;;;;;;;14.85;6.28;;;26.20;99.90;;;;;;5064071;28;20224;-71
2022/06/05 08:44:47;;;;;;;14.95;6.38;;;26.30;99.90;;;;;;5079002;28;20819;-72
2022/06/05 08:47:33;;;;;;;11.45;5.65;;;26.20;99.90;;;;;;5060581;28;20527;-72
2022/06/05 08:50:46;;;;;;;13.07;6.60;;;25.90;99.90;;;;;;5052533;28;20190;-71
2022/06/05 08:53:34;;;;;;;14.43;6.15;;;25.60;99.90;;;;;;5055651;28;20191;-72
2022/06/05 08:56:01;;;;;;;19.00;6.47;;;25.60;99.90;;;;;;5085404;28;20174;-72
2022/06/05 08:58:44;;;;;;;19.13;6.75;;;25.90;99.90;;;;;;5070792;28;20213;-71
2022/06/05 09:01:21;;;;;;;16.73;6.50;;;26.00;99.90;;;;;;5076493;28;20221;-71
2022/06/05 09:04:11;;;;;;;14.02;6.22;;;26.00;99.90;;;;;;5063265;28;20193;-71
2022/06/05 09:06:45;;;;;;;12.18;6.00;;;26.20;99.90;;;;;;5063765;28;20267;-71
2022/06/05 09:09:38;;;;;;;17.33;7.07;;;26.40;99.90;;;;;;5066600;28;20182;-71
2022/06/05 09:12:21;;;;;;;16.23;5.90;;;26.60;99.90;;;;;;5068448;28;20194;-71
2022/06/05 09:15:24;;;;;;;16.77;6.82;;;26.70;99.90;;;;;;5102825;28;20662;-71
2022/06/05 09:17:57;;;;;;;18.52;6.95;;;26.60;99.90;;;;;;5078154;28;20194;-71
2022/06/05 09:20:41;;;;;;;13.95;6.72;;;26.40;99.90;;;;;;5085372;28;20216;-73
2022/06/05 09:23:45;;;;;;;15.93;6.68;;;26.50;99.90;;;;;;5096935;28;20280;-72
2022/06/05 09:26:32;;;;;;;15.63;6.93;;;26.50;99.90;;;;;;5081096;28;20185;-72
2022/06/05 09:29:10;;;;;;;18.00;7.00;;;26.20;99.90;;;;;;5051864;28;20178;-72
2022/06/05 09:31:58;;;;;;;12.23;6.50;;;25.90;99.90;;;;;;5088144;28;20206;-72
2022/06/05 09:34:38;;;;;;;14.70;6.63;;;25.70;99.90;;;;;;5067638;28;20310;-72
2022/06/05 09:37:24;;;;;;;15.93;6.35;;;25.70;99.90;;;;;;5060409;28;20209;-72
2022/06/05 09:40:15;;;;;;;19.05;6.53;;;25.50;99.90;;;;;;5064290;28;20196;-72
2022/06/05 09:43:12;;;;;;;18.75;6.63;;;25.50;99.90;;;;;;5085818;28;20263;-72
2022/06/05 09:46:20;;;;;;;20.52;6.93;;;25.50;99.90;;;;;;5087857;28;20201;-72
2022/06/05 09:49:37;;;;;;;13.27;6.88;;;25.70;99.90;;;;;;5086950;28;20193;-71
2022/06/05 09:52:20;;;;;;;13.13;6.60;;;25.70;99.90;;;;;;4964711;28;20189;-72
2022/06/05 09:55:14;;;;;;;18.75;7.10;;;25.90;99.90;;;;;;5066239;28;20259;-71
2022/06/05 09:58:27;;;;;;;15.90;6.82;;;26.30;99.90;;;;;;5036161;28;20190;-71
2022/06/05 10:01:19;;;;;;;16.95;6.90;;;26.10;99.90;;;;;;5067006;28;20390;-71
2022/06/05 10:03:48;;;;;;;16.95;6.40;;;25.90;99.90;;;;;;5063604;28;20196;-70
2022/06/05 10:06:41;;;;;;;11.32;5.75;;;26.20;99.90;;;;;;5081598;28;20698;-70
2022/06/05 10:09:24;;;;;;;15.90;6.40;;;26.60;99.90;;;;;;5084437;28;20259;-71
2022/06/05 10:12:07;;;;;;;19.20;6.28;;;26.80;99.90;;;;;;5064510;28;20205;-71
2022/06/05 10:15:01;;;;;;;13.57;6.38;;;26.80;99.90;;;;;;5076177;28;20300;-71
2022/06/05 10:17:53;;;;;;;15.30;6.50;;;26.80;99.90;;;;;;5085689;28;20240;-71
2022/06/05 10:21:00;;;;;;;13.60;6.38;;;27.00;99.90;;;;;;5094964;28;20284;-71
2022/06/05 10:23:35;;;;;;;12.95;6.25;;;27.00;99.90;;;;;;5065039;28;20251;-70
2022/06/05 10:26:27;;;;;;;14.60;6.00;;;26.70;99.90;;;;;;5062617;28;20181;-72
2022/06/05 10:29:22;;;;;;;18.15;7.03;;;26.40;99.90;;;;;;5068863;28;20198;-71
2022/06/05 10:32:13;;;;;;;14.50;6.00;;;26.20;99.90;;;;;;5064544;28;20190;-71
2022/06/05 10:34:58;;;;;;;16.30;6.63;;;26.10;99.90;;;;;;5049569;28;20194;-71
2022/06/05 10:37:57;;;;;;;15.23;6.30;;;26.10;99.90;;;;;;5073443;28;20700;-71
2022/06/05 10:40:46;;;;;;;13.48;5.63;;;26.50;99.90;;;;;;5064829;28;20214;-71
2022/06/05 10:43:28;;;;;;;12.55;5.55;;;26.90;99.90;;;;;;5078627;28;20737;-70
2022/06/05 10:46:05;;;;;;;13.93;5.88;;;27.20;99.90;;;;;;5088125;28;20626;-72
2022/06/05 10:48:55;;;;;;;11.68;4.95;;;27.30;99.90;;;;;;5086910;28;20189;-71
2022/06/05 10:51:40;;;;;;;15.73;5.18;;;27.40;99.90;;;;;;5049871;28;20194;-71
2022/06/05 10:54:48;;;;;;;13.07;4.72;;;27.40;99.90;;;;;;5060093;28;20186;-71
2022/06/05 10:57:34;;;;;;;14.75;5.70;;;27.60;99.90;;;;;;5032596;28;20186;-71
2022/06/05 11:00:25;;;;;;;13.60;5.18;;;27.70;99.90;;;;;;5072092;28;20798;-71
2022/06/05 11:03:14;;;;;;;13.02;5.00;;;27.60;99.90;;;;;;5082968;28;20248;-70
2022/06/05 11:06:07;;;;;;;10.25;4.20;;;27.60;99.90;;;;;;5069581;28;20206;-71
2022/06/05 11:08:51;;;;;;;11.82;4.53;;;27.70;99.90;;;;;;5053518;28;20274;-72
2022/06/05 11:15:09;;;;;;;11.40;4.25;;;27.60;99.90;;;;;;5087421;28;20174;-72
2022/06/05 11:17:45;;;;;;;6.28;3.65;;;27.50;99.90;;;;;;5063900;28;20201;-71
2022/06/05 11:20:26;;;;;;;13.30;3.95;;;27.50;99.90;;;;;;5066187;28;20182;-71
2022/06/05 11:23:02;;;;;;;14.05;4.10;;;27.60;99.90;;;;;;5068419;28;20250;-71
2022/06/05 11:26:09;;;;;;;15.32;4.18;;;27.50;99.90;;;;;;5071280;28;20182;-70
2022/06/05 11:29:27;;;;;;;13.02;4.22;;;27.70;99.90;;;;;;5087454;28;20198;-70
2022/06/05 11:32:25;;;;;;;10.95;4.38;;;27.70;99.90;;;;;;5071269;28;20190;-70
2022/06/05 11:35:48;;;;;;;12.85;4.20;;;27.80;99.90;;;;;;5086336;28;20269;-70
2022/06/05 11:39:00;;;;;;;8.65;3.83;;;27.80;99.90;;;;;;5074495;28;20186;-71
2022/06/05 11:41:53;;;;;;;10.98;3.92;;;27.90;99.90;;;;;;5089582;28;20190;-71
2022/06/05 11:44:23;;;;;;;11.00;4.32;;;27.80;99.90;;;;;;5063698;28;20183;-71
2022/06/05 11:47:03;;;;;;;14.25;4.10;;;27.80;99.90;;;;;;5089815;28;20186;-70
2022/06/05 11:50:09;;;;;;;13.25;3.92;;;28.00;99.90;;;;;;5090790;28;20722;-71
2022/06/05 11:53:05;;;;;;;8.38;3.47;;;28.10;99.90;;;;;;5080296;28;20260;-70
2022/06/05 11:56:13;;;;;;;9.13;3.60;;;27.90;99.90;;;;;;5068550;28;20190;-71
2022/06/05 11:58:55;;;;;;;11.65;3.75;;;27.90;99.90;;;;;;5070469;28;20190;-71
2022/06/05 12:01:31;;;;;;;9.73;4.00;;;27.90;99.90;;;;;;5063706;28;20717;-71
2022/06/05 12:04:10;;;;;;;9.65;3.60;;;27.80;99.90;;;;;;5052077;28;20213;-71
2022/06/05 12:06:55;;;;;;;14.82;3.92;;;27.70;99.90;;;;;;5067978;28;20190;-70
2022/06/05 12:09:31;;;;;;;9.88;4.43;;;27.70;99.90;;;;;;5055513;28;20215;-71
2022/06/05 12:12:13;;;;;;;10.93;4.20;;;27.90;99.90;;;;;;5091601;28;20216;-70
2022/06/05 12:15:25;;;;;;;17.25;3.80;;;28.10;99.90;;;;;;5069369;28;20234;-71
2022/06/05 12:18:26;;;;;;;10.75;4.03;;;28.20;99.90;;;;;;4991058;28;20227;-70
2022/06/05 12:21:27;;;;;;;11.27;4.00;;;28.10;99.90;;;;;;4997881;28;20898;-71
2022/06/05 12:24:20;;;;;;;11.70;3.50;;;28.00;99.90;;;;;;5078852;28;20198;-71
2022/06/05 12:26:56;;;;;;;11.77;4.30;;;28.10;99.90;;;;;;5078586;28;20183;-71
2022/06/05 12:29:49;;;;;;;8.23;3.58;;;28.00;99.90;;;;;;5080114;28;20483;-71
2022/06/05 12:33:00;;;;;;;15.27;4.03;;;27.90;99.90;;;;;;5086716;28;20194;-71
2022/06/05 12:35:44;;;;;;;10.27;3.67;;;28.00;99.90;;;;;;5051088;28;20198;-71
2022/06/05 12:38:37;;;;;;;7.15;4.03;;;27.90;99.90;;;;;;5044350;28;20196;-70
2022/06/05 12:41:24;;;;;;;10.02;4.03;;;27.80;99.90;;;;;;5081615;28;20202;-71
2022/06/05 12:44:06;;;;;;;9.75;3.22;;;27.80;99.90;;;;;;5070899;28;20177;-71
2022/06/05 12:46:37;;;;;;;15.93;4.70;;;27.70;99.90;;;;;;5050975;28;20189;-71
2022/06/05 12:49:53;;;;;;;12.18;3.97;;;27.70;99.90;;;;;;5071199;28;20221;-70
2022/06/05 12:52:32;;;;;;;11.88;3.85;;;27.80;99.90;;;;;;4973198;28;20204;-71
2022/06/05 12:55:19;;;;;;;11.40;4.10;;;28.00;99.90;;;;;;4993520;28;20274;-70
2022/06/05 12:57:45;;;;;;;13.60;4.20;;;28.00;99.90;;;;;;5053994;28;20197;-71
2022/06/05 13:00:20;;;;;;;10.18;4.07;;;27.90;99.90;;;;;;5104584;28;20189;-71
2022/06/05 13:03:31;;;;;;;10.40;4.30;;;27.80;99.90;;;;;;5050156;28;20601;-71
2022/06/05 13:06:08;;;;;;;11.40;3.78;;;27.70;99.90;;;;;;5095047;28;20277;-71
2022/06/05 13:08:43;;;;;;;11.00;3.70;;;27.70;99.90;;;;;;5085963;28;20212;-71
2022/06/05 13:11:40;;;;;;;13.27;3.65;;;27.70;99.90;;;;;;5052131;28;20186;-70
2022/06/05 13:15:18;;;;;;;11.88;3.40;;;27.60;99.90;;;;;;5063240;28;20202;-70
2022/06/05 13:18:08;;;;;;;11.07;3.97;;;27.40;99.90;;;;;;5008521;28;20649;-71
2022/06/05 13:20:57;;;;;;;9.60;3.47;;;27.40;99.90;;;;;;5076210;28;20214;-71
2022/06/05 13:24:07;;;;;;;9.05;3.58;;;27.50;99.90;;;;;;5069693;28;20609;-70
2022/06/05 13:27:00;;;;;;;13.93;4.05;;;27.60;99.90;;;;;;5084730;28;20554;-70
2022/06/05 13:29:42;;;;;;;13.65;3.67;;;27.60;99.90;;;;;;5084353;28;20190;-71
2022/06/05 13:32:12;;;;;;;9.95;3.40;;;27.50;99.90;;;;;;5072068;28;20178;-71
2022/06/05 13:34:56;;;;;;;12.45;3.42;;;27.40;99.90;;;;;;5062094;28;20190;-71
2022/06/05 13:37:39;;;;;;;7.88;3.50;;;27.40;99.90;;;;;;5083195;28;20186;-71
2022/06/05 13:40:28;;;;;;;9.52;3.83;;;27.40;99.90;;;;;;5066858;28;20186;-71
2022/06/05 13:42:55;;;;;;;13.50;4.07;;;27.20;99.90;;;;;;5057266;28;20190;-70
2022/06/05 13:45:58;;;;;;;10.45;3.60;;;27.40;99.90;;;;;;5083474;28;20193;-70
2022/06/05 13:49:25;;;;;;;9.35;3.28;;;27.40;99.90;;;;;;5050785;28;20190;-70
2022/06/05 13:52:26;;;;;;;9.93;3.80;;;27.30;99.90;;;;;;5083353;28;20323;-71
2022/06/05 13:55:30;;;;;;;7.38;3.35;;;27.10;99.90;;;;;;5064502;28;20221;-71
2022/06/05 13:57:59;;;;;;;8.25;3.60;;;27.00;99.90;;;;;;5050218;28;20189;-71